sensor_id;sensor_type;location;lat;lon;timestamp;P1;durP1;ratioP1;P2;durP2;ratioP2
70707;SDS011;58277;47.316;18.908;2022-10-16T00:00:12;13.07;;;7.40;;
70707;SDS011;58277;47.316;18.908;2022-10-16T00:02:35;15.10;;;7.78;;
70707;SDS011;58277;47.316;18.908;2022-10-16T00:04:57;13.40;;;7.70;;
70707;SDS011;58277;47.316;18.908;2022-10-16T00:07:21;17.63;;;8.00;;
70707;SDS011;58277;47.316;18.908;2022-10-16T00:09:44;14.57;;;7.95;;
70707;SDS011;58277;47.316;18.908;2022-10-16T00:12:06;14.23;;;8.10;;
70707;SDS011;58277;47.316;18.908;2022-10-16T00:14:29;18.17;;;7.90;;
70707;SDS011;58277;47.316;18.908;2022-10-16T00:16:52;13.50;;;7.82;;
70707;SDS011;58277;47.316;18.908;2022-10-16T00:19:14;17.80;;;7.85;;
70707;SDS011;58277;47.316;18.908;2022-10-16T00:21:38;13.20;;;7.22;;
70707;SDS011;58277;47.316;18.908;2022-10-16T00:24:19;13.27;;;7.45;;
70707;SDS011;58277;47.316;18.908;2022-10-16T00:26:42;14.52;;;7.20;;
70707;SDS011;58277;47.316;18.908;2022-10-16T00:29:05;14.05;;;7.93;;
70707;SDS011;58277;47.316;18.908;2022-10-16T00:31:29;14.50;;;7.57;;
70707;SDS011;58277;47.316;18.908;2022-10-16T00:33:52;14.82;;;7.90;;
70707;SDS011;58277;47.316;18.908;2022-10-16T00:36:19;14.55;;;7.60;;
70707;SDS011;58277;47.316;18.908;2022-10-16T00:38:44;12.73;;;7.88;;
70707;SDS011;58277;47.316;18.908;2022-10-16T00:41:09;13.80;;;7.43;;
70707;SDS011;58277;47.316;18.908;2022-10-16T00:43:37;16.15;;;7.72;;
70707;SDS011;58277;47.316;18.908;2022-10-16T00:46:11;14.00;;;7.38;;
70707;SDS011;58277;47.316;18.908;2022-10-16T00:48:38;15.20;;;7.60;;
70707;SDS011;58277;47.316;18.908;2022-10-16T00:51:00;12.65;;;7.00;;
70707;SDS011;58277;47.316;18.908;2022-10-16T00:53:24;12.77;;;7.25;;
70707;SDS011;58277;47.316;18.908;2022-10-16T00:55:47;14.52;;;7.97;;
70707;SDS011;58277;47.316;18.908;2022-10-16T00:58:10;16.88;;;7.40;;
70707;SDS011;58277;47.316;18.908;2022-10-16T01:00:33;12.93;;;7.40;;
70707;SDS011;58277;47.316;18.908;2022-10-16T01:02:57;15.25;;;7.75;;
70707;SDS011;58277;47.316;18.908;2022-10-16T01:05:22;14.68;;;7.25;;
70707;SDS011;58277;47.316;18.908;2022-10-16T01:13:10;15.15;;;7.50;;
70707;SDS011;58277;47.316;18.908;2022-10-16T01:18:18;14.93;;;6.93;;
70707;SDS011;58277;47.316;18.908;2022-10-16T01:20:44;12.80;;;7.35;;
70707;SDS011;58277;47.316;18.908;2022-10-16T01:23:21;16.38;;;7.57;;
70707;SDS011;58277;47.316;18.908;2022-10-16T01:28:22;13.55;;;7.35;;
70707;SDS011;58277;47.316;18.908;2022-10-16T01:30:50;14.88;;;7.78;;
70707;SDS011;58277;47.316;18.908;2022-10-16T01:33:20;13.32;;;7.32;;
70707;SDS011;58277;47.316;18.908;2022-10-16T01:35:46;15.60;;;7.90;;
70707;SDS011;58277;47.316;18.908;2022-10-16T01:38:22;12.82;;;7.20;;
70707;SDS011;58277;47.316;18.908;2022-10-16T01:40:59;13.43;;;7.20;;
70707;SDS011;58277;47.316;18.908;2022-10-16T01:43:31;14.07;;;7.15;;
70707;SDS011;58277;47.316;18.908;2022-10-16T01:45:59;14.25;;;7.63;;
70707;SDS011;58277;47.316;18.908;2022-10-16T01:48:23;13.07;;;6.93;;
70707;SDS011;58277;47.316;18.908;2022-10-16T01:50:56;12.35;;;7.03;;
70707;SDS011;58277;47.316;18.908;2022-10-16T01:53:23;12.65;;;7.00;;
70707;SDS011;58277;47.316;18.908;2022-10-16T01:55:47;13.35;;;6.93;;
70707;SDS011;58277;47.316;18.908;2022-10-16T01:58:11;10.70;;;6.72;;
70707;SDS011;58277;47.316;18.908;2022-10-16T02:00:36;14.23;;;7.20;;
70707;SDS011;58277;47.316;18.908;2022-10-16T02:03:01;13.57;;;7.25;;
70707;SDS011;58277;47.316;18.908;2022-10-16T02:05:32;14.20;;;7.55;;
70707;SDS011;58277;47.316;18.908;2022-10-16T02:08:00;15.18;;;7.55;;
70707;SDS011;58277;47.316;18.908;2022-10-16T02:10:27;13.15;;;7.40;;
70707;SDS011;58277;47.316;18.908;2022-10-16T02:12:55;16.83;;;7.65;;
70707;SDS011;58277;47.316;18.908;2022-10-16T02:15:22;19.73;;;8.00;;
70707;SDS011;58277;47.316;18.908;2022-10-16T02:17:45;15.30;;;8.05;;
70707;SDS011;58277;47.316;18.908;2022-10-16T02:20:08;15.73;;;8.15;;
70707;SDS011;58277;47.316;18.908;2022-10-16T02:22:42;14.98;;;7.68;;
70707;SDS011;58277;47.316;18.908;2022-10-16T02:27:57;13.20;;;7.57;;
70707;SDS011;58277;47.316;18.908;2022-10-16T02:33:29;14.30;;;7.45;;
70707;SDS011;58277;47.316;18.908;2022-10-16T02:35:53;14.15;;;7.32;;
70707;SDS011;58277;47.316;18.908;2022-10-16T02:38:17;12.65;;;7.32;;
70707;SDS011;58277;47.316;18.908;2022-10-16T02:40:41;14.95;;;7.50;;
70707;SDS011;58277;47.316;18.908;2022-10-16T02:43:05;13.70;;;7.70;;
70707;SDS011;58277;47.316;18.908;2022-10-16T02:45:27;15.10;;;7.97;;
70707;SDS011;58277;47.316;18.908;2022-10-16T02:47:51;16.45;;;7.88;;
70707;SDS011;58277;47.316;18.908;2022-10-16T02:50:28;12.80;;;7.20;;
70707;SDS011;58277;47.316;18.908;2022-10-16T02:52:51;14.48;;;7.18;;
70707;SDS011;58277;47.316;18.908;2022-10-16T02:55:14;13.73;;;7.35;;
70707;SDS011;58277;47.316;18.908;2022-10-16T02:57:36;15.65;;;7.80;;
70707;SDS011;58277;47.316;18.908;2022-10-16T02:59:59;14.43;;;7.63;;
70707;SDS011;58277;47.316;18.908;2022-10-16T03:02:22;14.38;;;7.45;;
70707;SDS011;58277;47.316;18.908;2022-10-16T03:04:44;14.95;;;7.65;;
70707;SDS011;58277;47.316;18.908;2022-10-16T03:07:07;13.75;;;7.60;;
70707;SDS011;58277;47.316;18.908;2022-10-16T03:09:30;15.60;;;7.35;;
70707;SDS011;58277;47.316;18.908;2022-10-16T03:11:52;15.02;;;7.55;;
70707;SDS011;58277;47.316;18.908;2022-10-16T03:14:15;12.57;;;7.07;;
70707;SDS011;58277;47.316;18.908;2022-10-16T03:16:37;15.13;;;7.70;;
70707;SDS011;58277;47.316;18.908;2022-10-16T03:19:00;14.25;;;7.43;;
70707;SDS011;58277;47.316;18.908;2022-10-16T03:21:23;13.93;;;7.18;;
70707;SDS011;58277;47.316;18.908;2022-10-16T03:23:46;14.45;;;7.70;;
70707;SDS011;58277;47.316;18.908;2022-10-16T03:26:08;15.43;;;7.70;;
70707;SDS011;58277;47.316;18.908;2022-10-16T03:28:31;15.73;;;7.30;;
70707;SDS011;58277;47.316;18.908;2022-10-16T03:30:54;17.40;;;7.90;;
70707;SDS011;58277;47.316;18.908;2022-10-16T03:33:16;13.85;;;7.18;;
70707;SDS011;58277;47.316;18.908;2022-10-16T03:35:40;15.82;;;7.70;;
70707;SDS011;58277;47.316;18.908;2022-10-16T03:38:02;14.45;;;7.78;;
70707;SDS011;58277;47.316;18.908;2022-10-16T03:40:25;14.13;;;7.22;;
70707;SDS011;58277;47.316;18.908;2022-10-16T03:42:48;13.23;;;7.38;;
70707;SDS011;58277;47.316;18.908;2022-10-16T03:45:10;16.00;;;7.80;;
70707;SDS011;58277;47.316;18.908;2022-10-16T03:47:34;14.75;;;7.40;;
70707;SDS011;58277;47.316;18.908;2022-10-16T03:49:56;16.08;;;7.68;;
70707;SDS011;58277;47.316;18.908;2022-10-16T03:52:19;14.02;;;7.57;;
70707;SDS011;58277;47.316;18.908;2022-10-16T03:54:41;14.73;;;7.88;;
70707;SDS011;58277;47.316;18.908;2022-10-16T03:57:04;14.50;;;7.60;;
70707;SDS011;58277;47.316;18.908;2022-10-16T03:59:27;14.55;;;7.63;;
70707;SDS011;58277;47.316;18.908;2022-10-16T04:01:49;14.05;;;7.38;;
70707;SDS011;58277;47.316;18.908;2022-10-16T04:04:12;17.27;;;7.68;;
70707;SDS011;58277;47.316;18.908;2022-10-16T04:06:35;15.55;;;7.93;;
70707;SDS011;58277;47.316;18.908;2022-10-16T04:08:57;16.10;;;7.80;;
70707;SDS011;58277;47.316;18.908;2022-10-16T04:11:20;14.63;;;8.02;;
70707;SDS011;58277;47.316;18.908;2022-10-16T04:13:42;14.27;;;7.53;;
70707;SDS011;58277;47.316;18.908;2022-10-16T04:16:06;14.52;;;7.60;;
70707;SDS011;58277;47.316;18.908;2022-10-16T04:18:28;14.18;;;7.65;;
70707;SDS011;58277;47.316;18.908;2022-10-16T04:20:51;14.30;;;7.95;;
70707;SDS011;58277;47.316;18.908;2022-10-16T04:23:13;14.63;;;8.10;;
70707;SDS011;58277;47.316;18.908;2022-10-16T04:25:36;16.88;;;8.40;;
70707;SDS011;58277;47.316;18.908;2022-10-16T04:27:58;18.88;;;8.13;;
70707;SDS011;58277;47.316;18.908;2022-10-16T04:30:21;16.05;;;8.00;;
70707;SDS011;58277;47.316;18.908;2022-10-16T04:32:47;17.00;;;8.15;;
70707;SDS011;58277;47.316;18.908;2022-10-16T04:35:13;16.08;;;7.78;;
70707;SDS011;58277;47.316;18.908;2022-10-16T04:37:36;17.13;;;8.48;;
70707;SDS011;58277;47.316;18.908;2022-10-16T04:39:59;17.73;;;8.80;;
70707;SDS011;58277;47.316;18.908;2022-10-16T04:42:22;18.10;;;8.77;;
70707;SDS011;58277;47.316;18.908;2022-10-16T04:44:44;16.20;;;8.43;;
70707;SDS011;58277;47.316;18.908;2022-10-16T04:47:12;17.65;;;8.38;;
70707;SDS011;58277;47.316;18.908;2022-10-16T04:49:35;15.63;;;8.48;;
70707;SDS011;58277;47.316;18.908;2022-10-16T04:51:58;16.58;;;8.30;;
70707;SDS011;58277;47.316;18.908;2022-10-16T04:54:20;16.92;;;8.10;;
70707;SDS011;58277;47.316;18.908;2022-10-16T04:56:43;16.92;;;8.18;;
70707;SDS011;58277;47.316;18.908;2022-10-16T04:59:09;19.00;;;8.38;;
70707;SDS011;58277;47.316;18.908;2022-10-16T05:01:32;17.33;;;8.70;;
70707;SDS011;58277;47.316;18.908;2022-10-16T05:03:54;15.65;;;8.13;;
70707;SDS011;58277;47.316;18.908;2022-10-16T05:06:17;20.95;;;8.20;;
70707;SDS011;58277;47.316;18.908;2022-10-16T05:08:39;19.40;;;8.80;;
70707;SDS011;58277;47.316;18.908;2022-10-16T05:11:02;16.52;;;8.65;;
70707;SDS011;58277;47.316;18.908;2022-10-16T05:13:25;18.35;;;8.75;;
70707;SDS011;58277;47.316;18.908;2022-10-16T05:15:48;17.15;;;8.88;;
70707;SDS011;58277;47.316;18.908;2022-10-16T05:18:11;17.38;;;8.85;;
70707;SDS011;58277;47.316;18.908;2022-10-16T05:20:33;16.15;;;8.57;;
70707;SDS011;58277;47.316;18.908;2022-10-16T05:22:56;16.70;;;8.73;;
70707;SDS011;58277;47.316;18.908;2022-10-16T05:25:18;14.75;;;8.40;;
70707;SDS011;58277;47.316;18.908;2022-10-16T05:27:41;19.77;;;8.80;;
70707;SDS011;58277;47.316;18.908;2022-10-16T05:30:04;15.70;;;8.10;;
70707;SDS011;58277;47.316;18.908;2022-10-16T05:32:31;17.42;;;8.80;;
70707;SDS011;58277;47.316;18.908;2022-10-16T05:34:53;15.65;;;8.80;;
70707;SDS011;58277;47.316;18.908;2022-10-16T05:37:16;17.13;;;8.60;;
70707;SDS011;58277;47.316;18.908;2022-10-16T05:39:39;15.10;;;8.38;;
70707;SDS011;58277;47.316;18.908;2022-10-16T05:42:01;16.55;;;8.57;;
70707;SDS011;58277;47.316;18.908;2022-10-16T05:44:24;15.57;;;8.43;;
70707;SDS011;58277;47.316;18.908;2022-10-16T05:46:46;15.15;;;8.15;;
70707;SDS011;58277;47.316;18.908;2022-10-16T05:49:09;16.80;;;8.10;;
70707;SDS011;58277;47.316;18.908;2022-10-16T05:51:31;17.08;;;8.18;;
70707;SDS011;58277;47.316;18.908;2022-10-16T05:53:54;15.65;;;7.93;;
70707;SDS011;58277;47.316;18.908;2022-10-16T05:56:17;16.52;;;7.85;;
70707;SDS011;58277;47.316;18.908;2022-10-16T05:58:39;16.75;;;8.70;;
70707;SDS011;58277;47.316;18.908;2022-10-16T06:01:04;14.60;;;8.35;;
70707;SDS011;58277;47.316;18.908;2022-10-16T06:03:29;15.50;;;7.88;;
70707;SDS011;58277;47.316;18.908;2022-10-16T06:05:52;17.55;;;8.82;;
70707;SDS011;58277;47.316;18.908;2022-10-16T06:08:15;17.33;;;8.70;;
70707;SDS011;58277;47.316;18.908;2022-10-16T06:10:37;15.52;;;8.30;;
70707;SDS011;58277;47.316;18.908;2022-10-16T06:13:00;21.27;;;9.18;;
70707;SDS011;58277;47.316;18.908;2022-10-16T06:15:23;19.38;;;8.43;;
70707;SDS011;58277;47.316;18.908;2022-10-16T06:17:45;19.20;;;9.02;;
70707;SDS011;58277;47.316;18.908;2022-10-16T06:20:08;17.27;;;9.38;;
70707;SDS011;58277;47.316;18.908;2022-10-16T06:22:31;18.85;;;8.85;;
70707;SDS011;58277;47.316;18.908;2022-10-16T06:24:53;16.50;;;9.10;;
70707;SDS011;58277;47.316;18.908;2022-10-16T06:27:16;15.55;;;8.45;;
70707;SDS011;58277;47.316;18.908;2022-10-16T06:29:39;20.60;;;8.90;;
70707;SDS011;58277;47.316;18.908;2022-10-16T06:32:02;19.38;;;9.05;;
70707;SDS011;58277;47.316;18.908;2022-10-16T06:34:24;18.00;;;9.32;;
70707;SDS011;58277;47.316;18.908;2022-10-16T06:36:47;17.67;;;9.35;;
70707;SDS011;58277;47.316;18.908;2022-10-16T06:39:09;18.88;;;9.05;;
70707;SDS011;58277;47.316;18.908;2022-10-16T06:41:32;18.80;;;9.90;;
70707;SDS011;58277;47.316;18.908;2022-10-16T06:44:09;18.13;;;9.63;;
70707;SDS011;58277;47.316;18.908;2022-10-16T06:46:32;17.70;;;9.60;;
70707;SDS011;58277;47.316;18.908;2022-10-16T06:48:54;18.25;;;9.68;;
70707;SDS011;58277;47.316;18.908;2022-10-16T06:51:18;20.27;;;9.90;;
70707;SDS011;58277;47.316;18.908;2022-10-16T06:53:45;16.02;;;9.05;;
70707;SDS011;58277;47.316;18.908;2022-10-16T06:56:27;18.70;;;10.13;;
70707;SDS011;58277;47.316;18.908;2022-10-16T06:58:52;22.95;;;10.15;;
70707;SDS011;58277;47.316;18.908;2022-10-16T07:01:16;20.30;;;9.45;;
70707;SDS011;58277;47.316;18.908;2022-10-16T07:03:40;18.88;;;10.40;;
70707;SDS011;58277;47.316;18.908;2022-10-16T07:06:04;21.25;;;10.25;;
70707;SDS011;58277;47.316;18.908;2022-10-16T07:08:32;17.38;;;9.75;;
70707;SDS011;58277;47.316;18.908;2022-10-16T07:11:09;20.20;;;9.55;;
70707;SDS011;58277;47.316;18.908;2022-10-16T07:13:33;18.02;;;9.40;;
70707;SDS011;58277;47.316;18.908;2022-10-16T07:15:56;17.48;;;9.73;;
70707;SDS011;58277;47.316;18.908;2022-10-16T07:18:19;17.20;;;9.63;;
70707;SDS011;58277;47.316;18.908;2022-10-16T07:20:42;16.45;;;8.95;;
70707;SDS011;58277;47.316;18.908;2022-10-16T07:23:04;17.63;;;9.48;;
70707;SDS011;58277;47.316;18.908;2022-10-16T07:25:28;15.02;;;9.02;;
70707;SDS011;58277;47.316;18.908;2022-10-16T07:27:51;15.18;;;8.70;;
70707;SDS011;58277;47.316;18.908;2022-10-16T07:30:13;16.67;;;8.95;;
70707;SDS011;58277;47.316;18.908;2022-10-16T07:32:36;14.07;;;8.85;;
70707;SDS011;58277;47.316;18.908;2022-10-16T07:34:59;14.05;;;8.63;;
70707;SDS011;58277;47.316;18.908;2022-10-16T07:37:21;13.07;;;7.85;;
70707;SDS011;58277;47.316;18.908;2022-10-16T07:39:44;14.27;;;8.10;;
70707;SDS011;58277;47.316;18.908;2022-10-16T07:42:07;13.57;;;8.27;;
70707;SDS011;58277;47.316;18.908;2022-10-16T07:44:30;13.20;;;8.27;;
70707;SDS011;58277;47.316;18.908;2022-10-16T07:46:52;14.48;;;8.25;;
70707;SDS011;58277;47.316;18.908;2022-10-16T07:49:15;13.85;;;8.10;;
70707;SDS011;58277;47.316;18.908;2022-10-16T07:51:37;14.45;;;7.95;;
70707;SDS011;58277;47.316;18.908;2022-10-16T07:54:02;14.30;;;8.20;;
70707;SDS011;58277;47.316;18.908;2022-10-16T07:56:25;15.25;;;8.27;;
70707;SDS011;58277;47.316;18.908;2022-10-16T07:58:48;14.82;;;7.80;;
70707;SDS011;58277;47.316;18.908;2022-10-16T08:01:13;14.52;;;8.05;;
70707;SDS011;58277;47.316;18.908;2022-10-16T08:03:37;15.65;;;8.43;;
70707;SDS011;58277;47.316;18.908;2022-10-16T08:06:00;15.85;;;7.75;;
70707;SDS011;58277;47.316;18.908;2022-10-16T08:08:23;16.15;;;7.90;;
70707;SDS011;58277;47.316;18.908;2022-10-16T08:10:46;16.73;;;7.72;;
70707;SDS011;58277;47.316;18.908;2022-10-16T08:13:09;18.48;;;8.50;;
70707;SDS011;58277;47.316;18.908;2022-10-16T08:15:31;14.98;;;7.85;;
70707;SDS011;58277;47.316;18.908;2022-10-16T08:17:55;13.68;;;7.45;;
70707;SDS011;58277;47.316;18.908;2022-10-16T08:20:23;16.33;;;8.02;;
70707;SDS011;58277;47.316;18.908;2022-10-16T08:22:45;14.82;;;7.80;;
70707;SDS011;58277;47.316;18.908;2022-10-16T08:25:08;15.25;;;8.10;;
70707;SDS011;58277;47.316;18.908;2022-10-16T08:27:33;14.20;;;7.97;;
70707;SDS011;58277;47.316;18.908;2022-10-16T08:29:56;14.10;;;8.05;;
70707;SDS011;58277;47.316;18.908;2022-10-16T08:32:18;14.80;;;8.10;;
70707;SDS011;58277;47.316;18.908;2022-10-16T08:34:46;14.80;;;8.05;;
70707;SDS011;58277;47.316;18.908;2022-10-16T08:37:09;14.63;;;8.35;;
70707;SDS011;58277;47.316;18.908;2022-10-16T08:39:33;14.02;;;8.35;;
70707;SDS011;58277;47.316;18.908;2022-10-16T08:50:08;15.20;;;8.10;;
70707;SDS011;58277;47.316;18.908;2022-10-16T08:52:34;17.13;;;8.10;;
70707;SDS011;58277;47.316;18.908;2022-10-16T08:55:00;15.77;;;8.20;;
70707;SDS011;58277;47.316;18.908;2022-10-16T08:57:24;13.00;;;7.97;;
70707;SDS011;58277;47.316;18.908;2022-10-16T08:59:49;15.73;;;8.20;;
70707;SDS011;58277;47.316;18.908;2022-10-16T09:02:35;15.60;;;8.32;;
70707;SDS011;58277;47.316;18.908;2022-10-16T09:12:51;15.25;;;8.50;;
70707;SDS011;58277;47.316;18.908;2022-10-16T09:18:22;13.30;;;7.82;;
70707;SDS011;58277;47.316;18.908;2022-10-16T09:21:18;13.77;;;7.65;;
70707;SDS011;58277;47.316;18.908;2022-10-16T09:23:37;14.82;;;8.00;;
70707;SDS011;58277;47.316;18.908;2022-10-16T09:26:00;11.80;;;7.68;;
70707;SDS011;58277;47.316;18.908;2022-10-16T09:28:25;14.77;;;8.27;;
70707;SDS011;58277;47.316;18.908;2022-10-16T09:30:48;15.82;;;8.55;;
70707;SDS011;58277;47.316;18.908;2022-10-16T09:33:33;17.15;;;8.80;;
70707;SDS011;58277;47.316;18.908;2022-10-16T09:36:00;13.57;;;7.72;;
70707;SDS011;58277;47.316;18.908;2022-10-16T09:40:50;15.27;;;8.55;;
70707;SDS011;58277;47.316;18.908;2022-10-16T09:43:46;17.20;;;7.75;;
70707;SDS011;58277;47.316;18.908;2022-10-16T09:46:34;13.07;;;8.07;;
70707;SDS011;58277;47.316;18.908;2022-10-16T09:48:59;14.80;;;7.68;;
70707;SDS011;58277;47.316;18.908;2022-10-16T09:51:27;16.80;;;8.27;;
70707;SDS011;58277;47.316;18.908;2022-10-16T09:53:59;19.42;;;8.30;;
70707;SDS011;58277;47.316;18.908;2022-10-16T09:56:25;13.70;;;7.72;;
70707;SDS011;58277;47.316;18.908;2022-10-16T09:58:52;13.60;;;8.02;;
70707;SDS011;58277;47.316;18.908;2022-10-16T10:01:17;16.45;;;7.93;;
70707;SDS011;58277;47.316;18.908;2022-10-16T10:03:40;14.10;;;7.90;;
70707;SDS011;58277;47.316;18.908;2022-10-16T10:06:17;16.40;;;7.93;;
70707;SDS011;58277;47.316;18.908;2022-10-16T10:08:53;13.27;;;7.65;;
70707;SDS011;58277;47.316;18.908;2022-10-16T10:11:17;14.43;;;7.28;;
70707;SDS011;58277;47.316;18.908;2022-10-16T10:13:39;13.90;;;7.68;;
70707;SDS011;58277;47.316;18.908;2022-10-16T10:16:02;17.27;;;8.18;;
70707;SDS011;58277;47.316;18.908;2022-10-16T10:18:25;13.82;;;7.50;;
70707;SDS011;58277;47.316;18.908;2022-10-16T10:20:58;11.13;;;7.07;;
70707;SDS011;58277;47.316;18.908;2022-10-16T10:23:23;14.35;;;8.10;;
70707;SDS011;58277;47.316;18.908;2022-10-16T10:36:36;14.50;;;7.45;;
70707;SDS011;58277;47.316;18.908;2022-10-16T10:47:22;13.45;;;7.50;;
70707;SDS011;58277;47.316;18.908;2022-10-16T11:01:14;14.90;;;7.63;;
70707;SDS011;58277;47.316;18.908;2022-10-16T11:06:40;12.38;;;6.72;;
70707;SDS011;58277;47.316;18.908;2022-10-16T11:09:15;10.85;;;7.18;;
70707;SDS011;58277;47.316;18.908;2022-10-16T11:11:46;13.68;;;7.20;;
70707;SDS011;58277;47.316;18.908;2022-10-16T11:17:18;10.88;;;6.68;;
70707;SDS011;58277;47.316;18.908;2022-10-16T11:22:53;11.35;;;6.43;;
70707;SDS011;58277;47.316;18.908;2022-10-16T11:30:29;10.52;;;6.50;;
70707;SDS011;58277;47.316;18.908;2022-10-16T11:32:59;10.35;;;6.38;;
70707;SDS011;58277;47.316;18.908;2022-10-16T11:37:59;10.73;;;6.72;;
70707;SDS011;58277;47.316;18.908;2022-10-16T11:40:29;12.10;;;6.45;;
70707;SDS011;58277;47.316;18.908;2022-10-16T11:43:10;13.45;;;6.72;;
70707;SDS011;58277;47.316;18.908;2022-10-16T11:45:42;9.98;;;5.97;;
70707;SDS011;58277;47.316;18.908;2022-10-16T11:56:18;9.88;;;5.75;;
70707;SDS011;58277;47.316;18.908;2022-10-16T12:01:22;10.23;;;6.47;;
70707;SDS011;58277;47.316;18.908;2022-10-16T12:11:50;11.15;;;6.07;;
70707;SDS011;58277;47.316;18.908;2022-10-16T12:16:37;10.18;;;5.78;;
70707;SDS011;58277;47.316;18.908;2022-10-16T12:19:13;9.00;;;5.65;;
70707;SDS011;58277;47.316;18.908;2022-10-16T12:21:38;8.68;;;5.53;;
70707;SDS011;58277;47.316;18.908;2022-10-16T12:24:02;10.52;;;5.78;;
70707;SDS011;58277;47.316;18.908;2022-10-16T12:26:29;9.10;;;5.40;;
70707;SDS011;58277;47.316;18.908;2022-10-16T12:31:54;8.98;;;5.18;;
70707;SDS011;58277;47.316;18.908;2022-10-16T12:34:21;8.80;;;5.40;;
70707;SDS011;58277;47.316;18.908;2022-10-16T12:36:49;10.23;;;6.32;;
70707;SDS011;58277;47.316;18.908;2022-10-16T12:39:20;8.52;;;5.70;;
70707;SDS011;58277;47.316;18.908;2022-10-16T12:41:47;10.73;;;5.47;;
70707;SDS011;58277;47.316;18.908;2022-10-16T12:44:25;10.35;;;5.70;;
70707;SDS011;58277;47.316;18.908;2022-10-16T12:46:50;8.20;;;5.60;;
70707;SDS011;58277;47.316;18.908;2022-10-16T12:51:36;8.95;;;5.72;;
70707;SDS011;58277;47.316;18.908;2022-10-16T12:56:33;9.82;;;5.55;;
70707;SDS011;58277;47.316;18.908;2022-10-16T13:04:53;8.77;;;5.30;;
70707;SDS011;58277;47.316;18.908;2022-10-16T13:08:01;9.35;;;5.15;;
70707;SDS011;58277;47.316;18.908;2022-10-16T13:21:36;8.65;;;5.35;;
70707;SDS011;58277;47.316;18.908;2022-10-16T13:24:42;9.32;;;5.78;;
70707;SDS011;58277;47.316;18.908;2022-10-16T13:27:26;9.88;;;5.20;;
70707;SDS011;58277;47.316;18.908;2022-10-16T13:30:02;8.95;;;4.88;;
70707;SDS011;58277;47.316;18.908;2022-10-16T13:32:34;7.80;;;5.20;;
70707;SDS011;58277;47.316;18.908;2022-10-16T13:34:57;9.13;;;4.90;;
70707;SDS011;58277;47.316;18.908;2022-10-16T13:37:21;7.93;;;5.35;;
70707;SDS011;58277;47.316;18.908;2022-10-16T13:39:48;9.30;;;5.22;;
70707;SDS011;58277;47.316;18.908;2022-10-16T13:44:50;8.88;;;5.30;;
70707;SDS011;58277;47.316;18.908;2022-10-16T13:47:18;9.82;;;5.15;;
70707;SDS011;58277;47.316;18.908;2022-10-16T13:49:59;7.10;;;4.85;;
70707;SDS011;58277;47.316;18.908;2022-10-16T13:52:26;7.45;;;5.15;;
70707;SDS011;58277;47.316;18.908;2022-10-16T13:54:50;10.68;;;7.10;;
70707;SDS011;58277;47.316;18.908;2022-10-16T13:57:14;10.45;;;5.60;;
70707;SDS011;58277;47.316;18.908;2022-10-16T13:59:48;9.10;;;5.13;;
70707;SDS011;58277;47.316;18.908;2022-10-16T14:04:49;10.65;;;5.15;;
70707;SDS011;58277;47.316;18.908;2022-10-16T14:07:13;7.88;;;5.18;;
70707;SDS011;58277;47.316;18.908;2022-10-16T14:09:43;8.85;;;4.97;;
70707;SDS011;58277;47.316;18.908;2022-10-16T14:12:11;6.97;;;4.70;;
70707;SDS011;58277;47.316;18.908;2022-10-16T14:14:35;8.32;;;5.18;;
70707;SDS011;58277;47.316;18.908;2022-10-16T14:17:03;7.90;;;5.07;;
70707;SDS011;58277;47.316;18.908;2022-10-16T14:19:27;9.52;;;5.18;;
70707;SDS011;58277;47.316;18.908;2022-10-16T14:21:51;9.82;;;5.18;;
70707;SDS011;58277;47.316;18.908;2022-10-16T14:24:22;8.52;;;4.93;;
70707;SDS011;58277;47.316;18.908;2022-10-16T14:26:54;7.55;;;4.80;;
70707;SDS011;58277;47.316;18.908;2022-10-16T14:29:18;11.18;;;5.05;;
70707;SDS011;58277;47.316;18.908;2022-10-16T14:31:42;8.60;;;5.00;;
70707;SDS011;58277;47.316;18.908;2022-10-16T14:34:25;8.52;;;5.43;;
70707;SDS011;58277;47.316;18.908;2022-10-16T14:36:55;9.10;;;5.10;;
70707;SDS011;58277;47.316;18.908;2022-10-16T14:39:19;10.45;;;5.43;;
70707;SDS011;58277;47.316;18.908;2022-10-16T14:41:44;10.07;;;5.20;;
70707;SDS011;58277;47.316;18.908;2022-10-16T14:44:11;9.23;;;5.25;;
70707;SDS011;58277;47.316;18.908;2022-10-16T14:46:35;7.90;;;5.10;;
70707;SDS011;58277;47.316;18.908;2022-10-16T14:49:00;7.60;;;5.05;;
70707;SDS011;58277;47.316;18.908;2022-10-16T14:51:38;10.45;;;5.28;;
70707;SDS011;58277;47.316;18.908;2022-10-16T14:54:07;10.15;;;5.30;;
70707;SDS011;58277;47.316;18.908;2022-10-16T14:56:32;7.63;;;5.28;;
70707;SDS011;58277;47.316;18.908;2022-10-16T14:59:04;9.93;;;5.45;;
70707;SDS011;58277;47.316;18.908;2022-10-16T15:01:27;7.88;;;5.07;;
70707;SDS011;58277;47.316;18.908;2022-10-16T15:03:50;10.23;;;5.03;;
70707;SDS011;58277;47.316;18.908;2022-10-16T15:06:15;9.70;;;5.05;;
70707;SDS011;58277;47.316;18.908;2022-10-16T15:08:38;9.75;;;5.50;;
70707;SDS011;58277;47.316;18.908;2022-10-16T15:11:01;9.10;;;5.72;;
70707;SDS011;58277;47.316;18.908;2022-10-16T15:13:23;10.05;;;5.80;;
70707;SDS011;58277;47.316;18.908;2022-10-16T15:15:46;10.50;;;5.68;;
70707;SDS011;58277;47.316;18.908;2022-10-16T15:18:09;11.00;;;6.00;;
70707;SDS011;58277;47.316;18.908;2022-10-16T15:20:33;10.95;;;5.82;;
70707;SDS011;58277;47.316;18.908;2022-10-16T15:22:57;11.00;;;5.53;;
70707;SDS011;58277;47.316;18.908;2022-10-16T15:27:48;18.00;;;6.75;;
70707;SDS011;58277;47.316;18.908;2022-10-16T15:30:11;18.33;;;6.82;;
70707;SDS011;58277;47.316;18.908;2022-10-16T15:32:34;19.77;;;8.63;;
70707;SDS011;58277;47.316;18.908;2022-10-16T15:34:56;19.75;;;8.15;;
70707;SDS011;58277;47.316;18.908;2022-10-16T15:37:19;23.95;;;9.77;;
70707;SDS011;58277;47.316;18.908;2022-10-16T15:39:43;23.58;;;9.57;;
70707;SDS011;58277;47.316;18.908;2022-10-16T15:42:05;20.27;;;9.15;;
70707;SDS011;58277;47.316;18.908;2022-10-16T15:44:28;19.45;;;9.02;;
70707;SDS011;58277;47.316;18.908;2022-10-16T15:46:54;16.33;;;7.78;;
70707;SDS011;58277;47.316;18.908;2022-10-16T15:49:17;13.50;;;7.20;;
70707;SDS011;58277;47.316;18.908;2022-10-16T15:51:41;12.32;;;6.75;;
70707;SDS011;58277;47.316;18.908;2022-10-16T15:54:04;13.57;;;7.38;;
70707;SDS011;58277;47.316;18.908;2022-10-16T15:56:27;16.45;;;6.75;;
70707;SDS011;58277;47.316;18.908;2022-10-16T15:58:51;12.93;;;6.20;;
70707;SDS011;58277;47.316;18.908;2022-10-16T16:01:14;11.77;;;6.70;;
70707;SDS011;58277;47.316;18.908;2022-10-16T16:03:37;10.57;;;6.30;;
70707;SDS011;58277;47.316;18.908;2022-10-16T16:06:06;13.40;;;6.35;;
70707;SDS011;58277;47.316;18.908;2022-10-16T16:08:32;9.65;;;6.10;;
70707;SDS011;58277;47.316;18.908;2022-10-16T16:10:59;11.07;;;5.50;;
70707;SDS011;58277;47.316;18.908;2022-10-16T16:13:26;11.50;;;5.65;;
70707;SDS011;58277;47.316;18.908;2022-10-16T16:15:49;9.57;;;5.50;;
70707;SDS011;58277;47.316;18.908;2022-10-16T16:18:11;9.32;;;5.60;;
70707;SDS011;58277;47.316;18.908;2022-10-16T16:20:34;12.07;;;5.90;;
70707;SDS011;58277;47.316;18.908;2022-10-16T16:22:57;8.23;;;5.25;;
70707;SDS011;58277;47.316;18.908;2022-10-16T16:25:20;8.55;;;5.40;;
70707;SDS011;58277;47.316;18.908;2022-10-16T16:27:43;10.85;;;5.50;;
70707;SDS011;58277;47.316;18.908;2022-10-16T16:30:06;9.60;;;5.57;;
70707;SDS011;58277;47.316;18.908;2022-10-16T16:32:30;8.70;;;5.28;;